createdAt,value
2022-09-02T00:01:02.614Z,17.70
2022-09-02T00:03:35.638Z,17.70
2022-09-02T00:06:03.965Z,17.70
2022-09-02T00:08:34.379Z,17.60
2022-09-02T00:11:03.547Z,17.60
2022-09-02T00:13:32.382Z,17.50
2022-09-02T00:16:01.375Z,17.50
2022-09-02T00:18:28.315Z,17.50
2022-09-02T00:20:55.671Z,17.50
2022-09-02T00:23:22.923Z,17.40
2022-09-02T00:25:54.270Z,17.50
2022-09-02T00:28:21.380Z,17.40
2022-09-02T00:30:49.190Z,17.40
2022-09-02T00:36:08.166Z,17.40
2022-09-02T00:38:37.254Z,17.30
2022-09-02T00:41:07.685Z,17.30
2022-09-02T00:46:34.858Z,17.30
2022-09-02T00:49:08.887Z,17.30
2022-09-02T00:52:07.961Z,17.30
2022-09-02T00:54:40.026Z,17.30
2022-09-02T00:57:14.046Z,17.30
2022-09-02T01:00:00.535Z,17.10
2022-09-02T01:05:26.251Z,17.10
2022-09-02T01:07:54.965Z,17.10
2022-09-02T01:10:27.113Z,17.00
2022-09-02T01:12:58.579Z,17.00
2022-09-02T01:15:26.460Z,17.00
2022-09-02T01:17:53.828Z,17.00
2022-09-02T01:20:25.774Z,16.90
2022-09-02T01:22:54.207Z,17.00
2022-09-02T01:25:24.342Z,17.00
2022-09-02T01:27:51.820Z,17.00
2022-09-02T01:30:23.975Z,16.90
2022-09-02T01:32:51.649Z,17.00
2022-09-02T01:35:18.602Z,16.90
2022-09-02T01:40:37.618Z,16.80
2022-09-02T01:43:09.329Z,16.80
2022-09-02T01:45:38.431Z,16.80
2022-09-02T01:48:05.777Z,16.90
2022-09-02T01:50:33.952Z,16.90
2022-09-02T01:53:04.155Z,16.90
2022-09-02T01:55:32.838Z,16.90
2022-09-02T01:57:59.790Z,16.90
2022-09-02T02:00:26.538Z,16.90
2022-09-02T02:02:53.385Z,16.90
2022-09-02T02:05:20.117Z,16.90
2022-09-02T02:07:46.864Z,16.90
2022-09-02T02:10:15.697Z,16.90
2022-09-02T02:12:42.598Z,17.00
2022-09-02T02:15:12.877Z,17.00
2022-09-02T02:17:39.772Z,17.00
2022-09-02T02:20:09.116Z,16.90
2022-09-02T02:22:36.689Z,16.90
2022-09-02T02:25:05.419Z,16.90
2022-09-02T02:27:32.365Z,16.90
2022-09-02T02:29:59.915Z,16.90
2022-09-02T02:32:26.698Z,16.90
2022-09-02T02:34:54.431Z,16.90
2022-09-02T02:37:25.235Z,16.90
2022-09-02T02:39:52.404Z,16.90
2022-09-02T02:42:19.263Z,16.90
2022-09-02T02:44:46.003Z,16.80
2022-09-02T02:47:12.627Z,16.80
2022-09-02T02:49:41.421Z,16.80
2022-09-02T02:52:09.714Z,16.80
2022-09-02T02:54:36.884Z,16.80
2022-09-02T02:57:05.234Z,16.80
2022-09-02T02:59:32.687Z,16.80
2022-09-02T03:01:59.719Z,16.80
2022-09-02T03:04:26.474Z,16.80
2022-09-02T03:06:53.239Z,16.80
2022-09-02T03:09:20.322Z,16.80
2022-09-02T03:11:48.122Z,16.80
2022-09-02T03:14:15.223Z,16.80
2022-09-02T03:16:42.022Z,16.70
2022-09-02T03:19:08.872Z,16.70
2022-09-02T03:21:39.246Z,16.70
2022-09-02T03:24:06.961Z,16.70
2022-09-02T03:26:33.568Z,16.70
2022-09-02T03:29:00.246Z,16.70
2022-09-02T03:31:27.562Z,16.70
2022-09-02T03:33:55.068Z,16.70
2022-09-02T03:36:31.046Z,16.70
2022-09-02T03:38:58.278Z,16.70
2022-09-02T03:41:25.308Z,16.70
2022-09-02T03:43:52.028Z,16.70
2022-09-02T03:46:19.718Z,16.70
2022-09-02T03:48:47.229Z,16.70
2022-09-02T03:51:13.950Z,16.60
2022-09-02T03:53:40.745Z,16.60
2022-09-02T03:56:11.655Z,16.60
2022-09-02T03:58:40.891Z,16.60
2022-09-02T04:01:12.792Z,16.60
2022-09-02T04:03:39.585Z,16.60
2022-09-02T04:06:09.931Z,16.50
2022-09-02T04:08:37.177Z,16.50
2022-09-02T04:11:08.885Z,16.50
2022-09-02T04:13:36.905Z,16.60
2022-09-02T04:16:13.616Z,16.50
2022-09-02T04:18:41.255Z,16.50
2022-09-02T04:21:08.591Z,16.50
2022-09-02T04:23:35.891Z,16.50
2022-09-02T04:26:08.638Z,16.40
2022-09-02T04:28:35.474Z,16.40
2022-09-02T04:31:06.710Z,16.40
2022-09-02T04:33:34.684Z,16.40
2022-09-02T04:36:08.683Z,16.30
2022-09-02T04:38:36.072Z,16.30
2022-09-02T04:41:08.719Z,16.30
2022-09-02T04:43:36.076Z,16.30
2022-09-02T04:46:06.251Z,16.30
2022-09-02T04:48:33.980Z,16.20
2022-09-02T04:51:09.829Z,16.20
2022-09-02T04:53:36.510Z,16.20
2022-09-02T04:56:05.149Z,16.20
2022-09-02T04:58:31.912Z,16.20
2022-09-02T05:00:58.730Z,16.30
2022-09-02T05:03:28.086Z,16.30
2022-09-02T05:06:06.554Z,16.30
2022-09-02T05:08:36.427Z,16.40
2022-09-02T05:11:07.697Z,16.30
2022-09-02T05:13:35.224Z,16.30
2022-09-02T05:16:02.829Z,16.40
2022-09-02T05:18:30.294Z,16.40
2022-09-02T05:20:57.006Z,16.40
2022-09-02T05:23:23.877Z,16.40
2022-09-02T05:25:50.653Z,16.40
2022-09-02T05:28:17.366Z,16.50
2022-09-02T05:30:44.205Z,16.50
2022-09-02T05:33:13.391Z,16.50
2022-09-02T05:35:45.889Z,16.50
2022-09-02T05:38:14.765Z,16.60
2022-09-02T05:40:41.478Z,16.60
2022-09-02T05:43:08.806Z,16.60
2022-09-02T05:45:38.232Z,16.60
2022-09-02T05:48:24.963Z,16.60
2022-09-02T05:50:57.372Z,16.60
2022-09-02T05:53:26.783Z,16.70
2022-09-02T05:55:53.680Z,16.70
2022-09-02T05:58:21.178Z,16.70
2022-09-02T06:00:47.805Z,16.80
2022-09-02T06:03:14.841Z,16.90
2022-09-02T06:05:42.504Z,16.90
2022-09-02T06:08:09.206Z,17.00
2022-09-02T06:10:41.410Z,17.00
2022-09-02T06:13:08.081Z,17.10
2022-09-02T06:15:34.969Z,17.10
2022-09-02T06:18:01.645Z,17.10
2022-09-02T06:20:32.413Z,17.20
2022-09-02T06:22:59.051Z,17.20
2022-09-02T06:25:25.651Z,17.20
2022-09-02T06:27:52.362Z,17.30
2022-09-02T06:30:19.153Z,17.40
2022-09-02T06:32:50.743Z,17.30
2022-09-02T06:35:17.607Z,17.50
2022-09-02T06:37:44.473Z,17.60
2022-09-02T06:40:12.191Z,17.70
2022-09-02T06:42:38.954Z,17.90
2022-09-02T06:45:06.113Z,17.90
2022-09-02T06:47:33.091Z,18.00
2022-09-02T06:50:00.449Z,18.00
2022-09-02T06:52:27.346Z,18.00
2022-09-02T06:54:54.915Z,17.80
2022-09-02T06:57:21.851Z,17.80
2022-09-02T06:59:51.827Z,17.90
2022-09-02T07:02:18.613Z,17.90
2022-09-02T07:05:04.132Z,17.90
2022-09-02T07:07:30.837Z,17.90
2022-09-02T07:09:57.597Z,17.70
2022-09-02T07:12:26.998Z,17.60
2022-09-02T07:14:54.247Z,17.70
2022-09-02T07:17:22.916Z,17.70
2022-09-02T07:19:50.485Z,17.70
2022-09-02T07:22:18.031Z,17.80
2022-09-02T07:24:46.008Z,17.80
2022-09-02T07:27:13.163Z,17.80
2022-09-02T07:29:41.637Z,17.80
2022-09-02T07:32:08.767Z,17.80
2022-09-02T07:34:36.262Z,17.80
2022-09-02T07:37:07.321Z,17.90
2022-09-02T07:39:37.210Z,17.90
2022-09-02T07:42:05.075Z,18.00
2022-09-02T07:44:34.568Z,18.10
2022-09-02T07:47:01.576Z,18.10
2022-09-02T07:49:29.002Z,18.20
2022-09-02T07:51:56.221Z,18.30
2022-09-02T07:54:25.863Z,18.30
2022-09-02T07:56:53.079Z,18.40
2022-09-02T07:59:21.870Z,18.50
2022-09-02T08:01:49.329Z,18.50
2022-09-02T08:04:18.118Z,18.60
2022-09-02T08:06:45.979Z,18.60
2022-09-02T08:09:14.240Z,18.60
2022-09-02T08:11:46.738Z,18.90
2022-09-02T08:14:24.219Z,19.00
2022-09-02T08:19:45.446Z,19.30
2022-09-02T08:22:12.294Z,19.30
2022-09-02T08:24:39.520Z,19.40
2022-09-02T08:27:06.599Z,19.40
2022-09-02T08:29:33.842Z,19.60
2022-09-02T08:32:01.860Z,19.70
2022-09-02T08:34:30.282Z,19.80
2022-09-02T08:36:57.445Z,20.00
2022-09-02T08:39:25.037Z,20.30
2022-09-02T08:42:12.034Z,20.20
2022-09-02T08:47:33.660Z,20.60
2022-09-02T08:50:02.468Z,21.00
2022-09-02T08:52:56.015Z,21.10
2022-09-02T08:55:34.122Z,21.40
2022-09-02T08:58:02.741Z,21.50
2022-09-02T09:00:39.909Z,21.50
2022-09-02T09:03:25.162Z,21.70
2022-09-02T09:05:58.358Z,21.90
2022-09-02T09:08:59.613Z,22.10
2022-09-02T09:11:50.305Z,22.00
2022-09-02T09:14:25.056Z,22.40
2022-09-02T09:19:54.899Z,22.60
2022-09-02T09:22:28.466Z,23.10
2022-09-02T09:24:57.800Z,23.40
2022-09-02T09:27:25.628Z,23.60
2022-09-02T09:29:53.497Z,23.60
2022-09-02T09:32:28.945Z,23.70
2022-09-02T09:35:02.894Z,23.50
2022-09-02T09:37:37.381Z,24.30
2022-09-02T09:40:22.934Z,24.40
2022-09-02T09:42:57.166Z,24.40
2022-09-02T09:45:33.839Z,24.50
2022-09-02T09:48:07.413Z,24.10
2022-09-02T09:50:34.201Z,24.10
2022-09-02T09:53:20.920Z,24.30
2022-09-02T09:56:05.166Z,24.40
2022-09-02T10:01:33.647Z,24.20
2022-09-02T10:04:20.840Z,24.60
2022-09-02T10:06:53.955Z,24.80
2022-09-02T10:09:20.896Z,25.20
2022-09-02T10:11:58.801Z,24.80
2022-09-02T10:17:27.809Z,25.60
2022-09-02T10:20:29.161Z,25.30
2022-09-02T10:23:23.457Z,24.80
2022-09-02T10:25:55.830Z,24.30
2022-09-02T10:28:30.926Z,24.50
2022-09-02T10:31:09.139Z,25.00
2022-09-02T10:34:10.704Z,25.60
2022-09-02T10:37:14.706Z,25.70
2022-09-02T10:40:15.254Z,26.40
2022-09-02T10:42:57.866Z,27.00
2022-09-02T10:45:34.983Z,25.20
2022-09-02T10:48:09.958Z,25.10
2022-09-02T10:50:55.243Z,25.20
2022-09-02T10:53:47.275Z,25.40
2022-09-02T10:56:21.708Z,25.90
2022-09-02T10:59:09.653Z,25.20
2022-09-02T11:01:45.817Z,25.30
2022-09-02T11:04:31.347Z,25.70
2022-09-02T11:07:03.273Z,26.20
2022-09-02T11:09:37.139Z,27.30
2022-09-02T11:12:27.252Z,26.60
2022-09-02T11:15:07.704Z,26.60
2022-09-02T11:17:44.100Z,26.10
2022-09-02T11:20:30.682Z,27.20
2022-09-02T11:23:09.079Z,27.40
2022-09-02T11:26:01.014Z,27.60
2022-09-02T11:28:43.552Z,27.20
2022-09-02T11:31:15.496Z,26.10
2022-09-02T11:33:54.305Z,26.00
2022-09-02T11:36:21.271Z,26.60
2022-09-02T11:39:03.043Z,25.00
2022-09-02T11:42:04.875Z,24.90
2022-09-02T11:44:53.927Z,25.60
2022-09-02T11:47:27.069Z,26.10
2022-09-02T11:50:12.384Z,26.10
2022-09-02T11:52:46.312Z,26.30
2022-09-02T11:55:29.582Z,26.50
2022-09-02T11:58:00.451Z,26.30
2022-09-02T12:00:54.419Z,26.70
2022-09-02T12:03:40.277Z,27.20
2022-09-02T12:06:19.548Z,27.30
2022-09-02T12:08:47.045Z,26.90
2022-09-02T12:11:39.849Z,26.50
2022-09-02T12:14:25.831Z,26.00
2022-09-02T12:17:07.532Z,25.30
2022-09-02T12:19:43.945Z,25.60
2022-09-02T12:22:16.777Z,26.10
2022-09-02T12:24:57.817Z,25.90
2022-09-02T12:27:34.535Z,25.70
2022-09-02T12:30:01.260Z,25.60
2022-09-02T12:32:46.078Z,25.50
2022-09-02T12:35:34.924Z,26.60
2022-09-02T12:38:09.943Z,28.20
2022-09-02T12:41:00.264Z,26.90
2022-09-02T12:43:32.696Z,26.10
2022-09-02T12:46:13.224Z,25.70
2022-09-02T12:48:44.301Z,25.50
2022-09-02T12:51:11.128Z,25.50
2022-09-02T12:53:43.336Z,25.00
2022-09-02T12:56:15.805Z,24.40
2022-09-02T12:58:48.792Z,24.10
2022-09-02T13:01:34.898Z,24.10
2022-09-02T13:04:19.836Z,23.40
2022-09-02T13:07:16.391Z,23.10
2022-09-02T13:10:02.069Z,23.40
2022-09-02T13:13:10.682Z,23.30
2022-09-02T13:16:10.057Z,23.40
2022-09-02T13:19:19.526Z,23.60
2022-09-02T13:22:11.155Z,23.80
2022-09-02T13:24:57.963Z,23.90
2022-09-02T13:27:53.987Z,23.90
2022-09-02T13:30:24.309Z,23.50
2022-09-02T13:33:05.626Z,23.20
2022-09-02T13:35:39.181Z,23.30
2022-09-02T13:38:05.998Z,23.40
2022-09-02T13:40:35.566Z,23.40
2022-09-02T13:43:03.622Z,23.50
2022-09-02T13:45:34.710Z,23.40
2022-09-02T13:48:06.971Z,23.30
2022-09-02T13:50:34.212Z,23.30
2022-09-02T13:55:57.202Z,23.50
2022-09-02T13:58:33.530Z,23.50
2022-09-02T14:01:22.678Z,23.40
2022-09-02T14:03:52.173Z,23.50
2022-09-02T14:06:25.338Z,23.40
2022-09-02T14:09:01.205Z,23.30
2022-09-02T14:11:38.379Z,23.40
2022-09-02T14:14:05.635Z,23.50
2022-09-02T14:16:35.447Z,23.40
2022-09-02T14:19:21.947Z,23.40
2022-09-02T14:24:47.165Z,23.60
2022-09-02T14:27:20.072Z,23.70
2022-09-02T14:32:47.020Z,23.50
2022-09-02T14:35:22.667Z,23.40
2022-09-02T14:37:56.168Z,23.40
2022-09-02T14:40:38.166Z,23.50
2022-09-02T14:43:12.684Z,23.50
2022-09-02T14:45:45.262Z,23.60
2022-09-02T14:51:14.108Z,23.50
2022-09-02T14:53:44.087Z,23.40
2022-09-02T14:56:11.030Z,23.40
2022-09-02T14:58:37.978Z,23.40
2022-09-02T15:01:08.639Z,23.40
2022-09-02T15:03:38.625Z,23.30
2022-09-02T15:06:05.773Z,23.40
2022-09-02T15:08:32.758Z,23.50
2022-09-02T15:11:01.347Z,23.40
2022-09-02T15:13:34.399Z,23.30
2022-09-02T15:16:02.921Z,23.40
2022-09-02T15:18:30.083Z,23.40
2022-09-02T15:20:57.618Z,23.40
2022-09-02T15:23:25.133Z,23.40
2022-09-02T15:25:54.032Z,23.30
2022-09-02T15:28:21.192Z,23.40
2022-09-02T15:30:48.582Z,23.40
2022-09-02T15:33:19.835Z,23.40
2022-09-02T15:35:47.601Z,23.30
2022-09-02T15:38:14.921Z,23.30
2022-09-02T15:40:41.740Z,23.30
2022-09-02T15:43:08.576Z,23.20
2022-09-02T15:45:37.273Z,23.20
2022-09-02T15:48:06.264Z,23.20
2022-09-02T15:50:34.312Z,23.20
2022-09-02T15:53:01.254Z,23.30
2022-09-02T15:55:31.691Z,23.30
2022-09-02T15:57:58.854Z,23.20
2022-09-02T16:00:27.546Z,23.10
2022-09-02T16:02:57.364Z,23.20
2022-09-02T16:05:24.606Z,23.20
2022-09-02T16:07:55.319Z,23.10
2022-09-02T16:10:22.497Z,23.00
2022-09-02T16:12:49.328Z,23.10
2022-09-02T16:18:07.391Z,23.10
2022-09-02T16:20:34.334Z,23.00
2022-09-02T16:23:01.295Z,23.00
2022-09-02T16:28:19.739Z,22.80
2022-09-02T16:30:46.688Z,22.80
2022-09-02T16:33:13.910Z,22.80
2022-09-02T16:35:42.622Z,22.80
2022-09-02T16:38:09.565Z,22.70
2022-09-02T16:40:36.309Z,22.70
2022-09-02T16:43:03.764Z,22.80
2022-09-02T16:45:30.504Z,22.70
2022-09-02T16:47:57.857Z,22.70
2022-09-02T16:50:24.886Z,22.70
2022-09-02T16:52:52.835Z,22.60
2022-09-02T16:55:19.817Z,22.60
2022-09-02T16:57:46.870Z,22.60
2022-09-02T17:00:14.719Z,22.50
2022-09-02T17:02:41.614Z,22.50
2022-09-02T17:05:10.876Z,22.40
2022-09-02T17:07:37.808Z,22.40
2022-09-02T17:10:05.187Z,22.50
2022-09-02T17:12:32.122Z,22.40
2022-09-02T17:14:59.086Z,22.30
2022-09-02T17:17:26.028Z,22.30
2022-09-02T17:19:52.966Z,22.20
2022-09-02T17:22:20.204Z,22.10
2022-09-02T17:24:51.742Z,22.10
2022-09-02T17:27:20.659Z,22.00
2022-09-02T17:29:49.380Z,21.90
2022-09-02T17:32:17.510Z,21.90
2022-09-02T17:34:44.555Z,21.80
2022-09-02T17:37:11.670Z,21.70
2022-09-02T17:39:38.617Z,21.70
2022-09-02T17:44:58.226Z,21.60
2022-09-02T17:47:26.518Z,21.60
2022-09-02T17:49:53.896Z,21.50
2022-09-02T17:52:22.977Z,21.50
2022-09-02T17:54:52.710Z,21.50
2022-09-02T17:57:42.343Z,21.40
2022-09-02T18:00:18.208Z,21.40
2022-09-02T18:06:19.482Z,21.40
2022-09-02T18:08:55.123Z,21.30
2022-09-02T18:11:24.847Z,21.20
2022-09-02T18:14:16.933Z,21.20
2022-09-02T18:17:20.359Z,21.10
2022-09-02T18:20:30.193Z,20.90
2022-09-02T18:26:30.464Z,20.60
2022-09-02T18:29:18.505Z,20.40
2022-09-02T18:32:06.550Z,20.30
2022-09-02T18:38:06.892Z,20.10
2022-09-02T18:41:04.555Z,20.00
2022-09-02T18:44:07.672Z,19.90
2022-09-02T18:49:46.303Z,19.90
2022-09-02T18:52:14.499Z,19.80
2022-09-02T18:54:48.866Z,19.80
2022-09-02T18:57:15.836Z,19.80
2022-09-02T19:08:45.523Z,19.60
2022-09-02T19:11:14.495Z,19.60
2022-09-02T19:14:01.179Z,19.50
2022-09-02T19:16:33.573Z,19.50
2022-09-02T19:19:00.518Z,19.50
2022-09-02T19:24:51.029Z,19.50
2022-09-02T19:27:21.352Z,19.50
2022-09-02T19:29:56.487Z,19.50
2022-09-02T19:32:29.804Z,19.40
2022-09-02T19:34:57.789Z,19.40
2022-09-02T19:37:24.384Z,19.40
2022-09-02T19:39:54.226Z,19.30
2022-09-02T19:42:24.159Z,19.30
2022-09-02T19:44:51.050Z,19.30
2022-09-02T19:50:05.976Z,19.20
2022-09-02T19:52:37.750Z,19.20
2022-09-02T19:55:04.987Z,19.20
2022-09-02T19:57:31.731Z,19.20
2022-09-02T19:59:58.360Z,19.10
2022-09-02T20:13:53.960Z,19.00
2022-09-02T20:16:26.619Z,19.00
2022-09-02T20:18:53.959Z,19.00
2022-09-02T20:21:27.541Z,19.00
2022-09-02T20:23:58.387Z,19.00
2022-09-02T20:26:25.108Z,18.90
2022-09-02T20:29:09.740Z,18.90
2022-09-02T20:31:59.627Z,18.80
2022-09-02T20:34:44.609Z,18.80
2022-09-02T20:37:19.322Z,18.80
2022-09-02T20:40:01.277Z,18.80
2022-09-02T20:42:38.315Z,18.70
2022-09-02T20:45:20.121Z,18.70
2022-09-02T20:48:01.978Z,18.70
2022-09-02T20:50:43.483Z,18.70
2022-09-02T20:53:22.361Z,18.60
2022-09-02T20:56:03.993Z,18.60
2022-09-02T20:58:37.678Z,18.60
2022-09-02T21:01:09.615Z,18.50
2022-09-02T21:04:14.190Z,18.50
2022-09-02T21:06:45.461Z,18.50
2022-09-02T21:09:39.618Z,18.50
2022-09-02T21:12:37.157Z,18.50
2022-09-02T21:15:27.680Z,18.50
2022-09-02T21:17:57.398Z,18.40
2022-09-02T21:20:43.083Z,18.40
2022-09-02T21:23:27.257Z,18.40
2022-09-02T21:26:03.703Z,18.40
2022-09-02T21:28:30.438Z,18.40
2022-09-02T21:31:05.945Z,18.40
2022-09-02T21:33:35.027Z,18.40
2022-09-02T21:36:04.064Z,18.40
2022-09-02T21:38:44.622Z,18.30
2022-09-02T21:41:35.025Z,18.30
2022-09-02T21:44:25.967Z,18.30
2022-09-02T21:47:11.414Z,18.30
2022-09-02T21:50:25.355Z,18.30
2022-09-02T21:53:07.258Z,18.30
2022-09-02T21:55:51.931Z,18.20
2022-09-02T21:58:57.882Z,18.20
2022-09-02T22:01:44.445Z,18.20
2022-09-02T22:07:39.025Z,18.20
2022-09-02T22:10:29.300Z,18.20
2022-09-02T22:13:03.208Z,18.10
2022-09-02T22:19:02.483Z,18.10
2022-09-02T22:21:48.124Z,18.10
2022-09-02T22:24:19.570Z,18.10
2022-09-02T22:26:53.374Z,18.00
2022-09-02T22:29:49.307Z,17.90
2022-09-02T22:32:23.524Z,17.90
2022-09-02T22:35:01.318Z,17.90
2022-09-02T22:37:49.263Z,17.90
2022-09-02T22:40:21.120Z,17.90
2022-09-02T22:42:53.886Z,17.90
2022-09-02T22:45:47.469Z,17.80
2022-09-02T22:51:55.891Z,17.80
2022-09-02T22:54:22.839Z,17.80
2022-09-02T23:00:09.464Z,17.80
2022-09-02T23:02:45.316Z,17.70
2022-09-02T23:05:48.201Z,17.70
2022-09-02T23:08:20.881Z,17.70
2022-09-02T23:11:02.880Z,17.70
2022-09-02T23:14:26.912Z,17.60
2022-09-02T23:17:23.853Z,17.60
2022-09-02T23:20:06.935Z,17.60
2022-09-02T23:22:49.657Z,17.60
2022-09-02T23:25:31.545Z,17.50
2022-09-02T23:28:21.339Z,17.50
2022-09-02T23:31:09.913Z,17.50
2022-09-02T23:34:13.792Z,17.50
2022-09-02T23:37:04.590Z,17.50
2022-09-02T23:42:54.413Z,17.50
2022-09-02T23:45:29.324Z,17.40
2022-09-02T23:51:24.564Z,17.30
2022-09-02T23:54:10.377Z,17.30
2022-09-02T23:56:58.477Z,17.30
2022-09-02T23:59:50.511Z,17.30
